sensor_id;sensor_type;location;lat;lon;timestamp;temperature;humidity
22321;DHT22;11328;53.928;18.522;2024-01-15T00:00:35;2.60;99.90
22321;DHT22;11328;53.928;18.522;2024-01-15T00:03:02;2.60;99.90
22321;DHT22;11328;53.928;18.522;2024-01-15T00:05:30;2.50;99.90
22321;DHT22;11328;53.928;18.522;2024-01-15T00:07:57;2.50;99.90
22321;DHT22;11328;53.928;18.522;2024-01-15T00:10:24;2.50;99.90
22321;DHT22;11328;53.928;18.522;2024-01-15T00:12:51;2.60;99.90
22321;DHT22;11328;53.928;18.522;2024-01-15T00:15:18;2.60;99.90
22321;DHT22;11328;53.928;18.522;2024-01-15T00:17:45;2.50;99.90
22321;DHT22;11328;53.928;18.522;2024-01-15T00:20:12;2.50;99.90
22321;DHT22;11328;53.928;18.522;2024-01-15T00:22:40;2.50;99.90
22321;DHT22;11328;53.928;18.522;2024-01-15T00:25:07;2.50;99.90
22321;DHT22;11328;53.928;18.522;2024-01-15T00:27:34;2.40;99.90
22321;DHT22;11328;53.928;18.522;2024-01-15T00:30:02;2.40;99.90
22321;DHT22;11328;53.928;18.522;2024-01-15T00:32:29;2.50;99.90
22321;DHT22;11328;53.928;18.522;2024-01-15T00:34:57;2.50;99.90
22321;DHT22;11328;53.928;18.522;2024-01-15T00:37:24;2.30;99.90
22321;DHT22;11328;53.928;18.522;2024-01-15T00:39:51;2.30;99.90
22321;DHT22;11328;53.928;18.522;2024-01-15T00:42:18;2.40;99.90
22321;DHT22;11328;53.928;18.522;2024-01-15T00:44:45;2.40;99.90
22321;DHT22;11328;53.928;18.522;2024-01-15T00:47:12;2.40;99.90
22321;DHT22;11328;53.928;18.522;2024-01-15T00:49:39;2.30;99.90
22321;DHT22;11328;53.928;18.522;2024-01-15T00:52:06;2.30;99.90
22321;DHT22;11328;53.928;18.522;2024-01-15T00:54:33;2.40;99.90
22321;DHT22;11328;53.928;18.522;2024-01-15T00:57:00;2.30;99.90
22321;DHT22;11328;53.928;18.522;2024-01-15T00:59:27;2.30;99.90
22321;DHT22;11328;53.928;18.522;2024-01-15T01:01:54;2.40;99.90
22321;DHT22;11328;53.928;18.522;2024-01-15T01:04:21;2.40;99.90
22321;DHT22;11328;53.928;18.522;2024-01-15T01:06:48;2.50;99.90
22321;DHT22;11328;53.928;18.522;2024-01-15T01:09:15;2.50;99.90
22321;DHT22;11328;53.928;18.522;2024-01-15T01:11:42;2.50;99.90
22321;DHT22;11328;53.928;18.522;2024-01-15T01:14:09;2.60;99.90
22321;DHT22;11328;53.928;18.522;2024-01-15T01:16:36;2.50;99.90
22321;DHT22;11328;53.928;18.522;2024-01-15T01:19:06;2.50;99.90
22321;DHT22;11328;53.928;18.522;2024-01-15T01:21:34;2.50;99.90
22321;DHT22;11328;53.928;18.522;2024-01-15T01:24:01;2.50;99.90
22321;DHT22;11328;53.928;18.522;2024-01-15T01:26:28;2.50;99.90
22321;DHT22;11328;53.928;18.522;2024-01-15T01:28:55;2.50;99.90
22321;DHT22;11328;53.928;18.522;2024-01-15T01:31:23;2.40;99.90
22321;DHT22;11328;53.928;18.522;2024-01-15T01:33:50;2.40;99.90
22321;DHT22;11328;53.928;18.522;2024-01-15T01:36:18;2.40;99.90
22321;DHT22;11328;53.928;18.522;2024-01-15T01:38:45;2.40;99.90
22321;DHT22;11328;53.928;18.522;2024-01-15T01:41:12;2.30;99.90
22321;DHT22;11328;53.928;18.522;2024-01-15T01:43:39;2.40;99.90
22321;DHT22;11328;53.928;18.522;2024-01-15T01:46:06;2.40;99.90
22321;DHT22;11328;53.928;18.522;2024-01-15T01:48:34;2.40;99.90
22321;DHT22;11328;53.928;18.522;2024-01-15T01:51:03;2.30;99.90
22321;DHT22;11328;53.928;18.522;2024-01-15T01:53:33;2.40;99.90
22321;DHT22;11328;53.928;18.522;2024-01-15T01:56:03;2.30;99.90
22321;DHT22;11328;53.928;18.522;2024-01-15T01:58:32;2.30;99.90
22321;DHT22;11328;53.928;18.522;2024-01-15T02:01:00;2.30;99.90
22321;DHT22;11328;53.928;18.522;2024-01-15T02:03:28;2.30;99.90
22321;DHT22;11328;53.928;18.522;2024-01-15T02:05:57;2.30;99.90
22321;DHT22;11328;53.928;18.522;2024-01-15T02:08:26;2.30;99.90
22321;DHT22;11328;53.928;18.522;2024-01-15T02:10:53;2.40;99.90
22321;DHT22;11328;53.928;18.522;2024-01-15T02:13:21;2.40;99.90
22321;DHT22;11328;53.928;18.522;2024-01-15T02:15:48;2.50;99.90
22321;DHT22;11328;53.928;18.522;2024-01-15T02:18:15;2.50;99.90
22321;DHT22;11328;53.928;18.522;2024-01-15T02:20:42;2.50;99.90
22321;DHT22;11328;53.928;18.522;2024-01-15T02:23:13;2.50;99.90
22321;DHT22;11328;53.928;18.522;2024-01-15T02:28:15;2.60;99.90
22321;DHT22;11328;53.928;18.522;2024-01-15T02:30:44;2.50;99.90
22321;DHT22;11328;53.928;18.522;2024-01-15T02:33:11;2.50;99.90
22321;DHT22;11328;53.928;18.522;2024-01-15T02:35:39;2.50;99.90
22321;DHT22;11328;53.928;18.522;2024-01-15T02:38:07;2.50;99.90
22321;DHT22;11328;53.928;18.522;2024-01-15T02:40:35;2.60;99.90
22321;DHT22;11328;53.928;18.522;2024-01-15T02:43:02;2.50;99.90
22321;DHT22;11328;53.928;18.522;2024-01-15T02:45:30;2.50;99.90
22321;DHT22;11328;53.928;18.522;2024-01-15T02:47:57;2.50;99.90
22321;DHT22;11328;53.928;18.522;2024-01-15T02:50:24;2.40;99.90
22321;DHT22;11328;53.928;18.522;2024-01-15T02:52:51;2.40;99.90
22321;DHT22;11328;53.928;18.522;2024-01-15T02:55:19;2.40;99.90
22321;DHT22;11328;53.928;18.522;2024-01-15T02:57:46;2.40;99.90
22321;DHT22;11328;53.928;18.522;2024-01-15T03:00:13;2.40;99.90
22321;DHT22;11328;53.928;18.522;2024-01-15T03:02:41;2.30;99.90
22321;DHT22;11328;53.928;18.522;2024-01-15T03:05:13;2.40;99.90
22321;DHT22;11328;53.928;18.522;2024-01-15T03:07:41;2.40;99.90
22321;DHT22;11328;53.928;18.522;2024-01-15T03:10:08;2.40;99.90
22321;DHT22;11328;53.928;18.522;2024-01-15T03:12:36;2.50;99.90
22321;DHT22;11328;53.928;18.522;2024-01-15T03:15:03;2.40;99.90
22321;DHT22;11328;53.928;18.522;2024-01-15T03:17:31;2.40;99.90
22321;DHT22;11328;53.928;18.522;2024-01-15T03:19:58;2.50;99.90
22321;DHT22;11328;53.928;18.522;2024-01-15T03:22:25;2.50;99.90
22321;DHT22;11328;53.928;18.522;2024-01-15T03:24:53;2.40;99.90
22321;DHT22;11328;53.928;18.522;2024-01-15T03:27:20;2.40;99.90
22321;DHT22;11328;53.928;18.522;2024-01-15T03:29:47;2.30;99.90
22321;DHT22;11328;53.928;18.522;2024-01-15T03:32:14;2.40;99.90
22321;DHT22;11328;53.928;18.522;2024-01-15T03:34:42;2.40;99.90
22321;DHT22;11328;53.928;18.522;2024-01-15T03:37:10;2.40;99.90
22321;DHT22;11328;53.928;18.522;2024-01-15T03:39:37;2.40;99.90
22321;DHT22;11328;53.928;18.522;2024-01-15T03:42:04;2.40;99.90
22321;DHT22;11328;53.928;18.522;2024-01-15T03:44:31;2.40;99.90
22321;DHT22;11328;53.928;18.522;2024-01-15T03:46:58;2.40;99.90
22321;DHT22;11328;53.928;18.522;2024-01-15T03:49:25;2.30;99.90
22321;DHT22;11328;53.928;18.522;2024-01-15T03:51:53;2.30;99.90
22321;DHT22;11328;53.928;18.522;2024-01-15T03:54:20;2.40;99.90
22321;DHT22;11328;53.928;18.522;2024-01-15T03:56:47;2.30;99.90
22321;DHT22;11328;53.928;18.522;2024-01-15T03:59:14;2.40;99.90
22321;DHT22;11328;53.928;18.522;2024-01-15T04:01:41;2.40;99.90
22321;DHT22;11328;53.928;18.522;2024-01-15T04:04:15;2.40;99.90
22321;DHT22;11328;53.928;18.522;2024-01-15T04:06:43;2.40;99.90
22321;DHT22;11328;53.928;18.522;2024-01-15T04:09:12;2.40;99.90
22321;DHT22;11328;53.928;18.522;2024-01-15T04:11:40;2.40;99.90
22321;DHT22;11328;53.928;18.522;2024-01-15T04:14:07;2.40;99.90
22321;DHT22;11328;53.928;18.522;2024-01-15T04:16:34;2.40;99.90
22321;DHT22;11328;53.928;18.522;2024-01-15T04:19:01;2.40;99.90
22321;DHT22;11328;53.928;18.522;2024-01-15T04:21:28;2.40;99.90
22321;DHT22;11328;53.928;18.522;2024-01-15T04:23:55;2.40;99.90
22321;DHT22;11328;53.928;18.522;2024-01-15T04:26:22;2.40;99.90
22321;DHT22;11328;53.928;18.522;2024-01-15T04:28:49;2.40;99.90
22321;DHT22;11328;53.928;18.522;2024-01-15T04:31:26;2.40;99.90
22321;DHT22;11328;53.928;18.522;2024-01-15T04:33:56;2.40;99.90
22321;DHT22;11328;53.928;18.522;2024-01-15T04:36:23;2.30;99.90
22321;DHT22;11328;53.928;18.522;2024-01-15T04:38:50;2.40;99.90
22321;DHT22;11328;53.928;18.522;2024-01-15T04:41:17;2.30;99.90
22321;DHT22;11328;53.928;18.522;2024-01-15T04:43:44;2.30;99.90
22321;DHT22;11328;53.928;18.522;2024-01-15T04:46:12;2.30;99.90
22321;DHT22;11328;53.928;18.522;2024-01-15T04:48:39;2.30;99.90
22321;DHT22;11328;53.928;18.522;2024-01-15T04:51:08;2.30;99.90
22321;DHT22;11328;53.928;18.522;2024-01-15T04:53:36;2.30;99.90
22321;DHT22;11328;53.928;18.522;2024-01-15T04:56:03;2.20;99.90
22321;DHT22;11328;53.928;18.522;2024-01-15T04:58:30;2.20;99.90
22321;DHT22;11328;53.928;18.522;2024-01-15T05:00:57;2.20;99.90
22321;DHT22;11328;53.928;18.522;2024-01-15T05:03:25;2.20;99.90
22321;DHT22;11328;53.928;18.522;2024-01-15T05:05:52;2.10;99.90
22321;DHT22;11328;53.928;18.522;2024-01-15T05:08:19;2.10;99.90
22321;DHT22;11328;53.928;18.522;2024-01-15T05:10:47;2.00;99.90
22321;DHT22;11328;53.928;18.522;2024-01-15T05:13:14;2.00;99.90
22321;DHT22;11328;53.928;18.522;2024-01-15T05:15:41;2.00;99.90
22321;DHT22;11328;53.928;18.522;2024-01-15T05:18:08;2.00;99.90
22321;DHT22;11328;53.928;18.522;2024-01-15T05:20:36;1.90;99.90
22321;DHT22;11328;53.928;18.522;2024-01-15T05:23:03;1.90;99.90
22321;DHT22;11328;53.928;18.522;2024-01-15T05:25:30;1.80;99.90
22321;DHT22;11328;53.928;18.522;2024-01-15T05:27:57;1.80;99.90
22321;DHT22;11328;53.928;18.522;2024-01-15T05:30:24;1.80;99.90
22321;DHT22;11328;53.928;18.522;2024-01-15T05:32:52;1.80;99.90
22321;DHT22;11328;53.928;18.522;2024-01-15T05:35:19;1.70;99.90
22321;DHT22;11328;53.928;18.522;2024-01-15T05:37:46;1.50;99.90
22321;DHT22;11328;53.928;18.522;2024-01-15T05:40:13;1.50;99.90
22321;DHT22;11328;53.928;18.522;2024-01-15T05:42:41;1.50;99.90
22321;DHT22;11328;53.928;18.522;2024-01-15T05:45:09;1.40;99.90
22321;DHT22;11328;53.928;18.522;2024-01-15T05:47:36;1.30;99.90
22321;DHT22;11328;53.928;18.522;2024-01-15T05:50:04;1.30;99.90
22321;DHT22;11328;53.928;18.522;2024-01-15T05:52:31;1.20;99.90
22321;DHT22;11328;53.928;18.522;2024-01-15T05:54:59;1.10;99.90
22321;DHT22;11328;53.928;18.522;2024-01-15T05:57:26;1.00;99.90
22321;DHT22;11328;53.928;18.522;2024-01-15T05:59:53;1.00;99.90
22321;DHT22;11328;53.928;18.522;2024-01-15T06:02:20;0.90;99.90
22321;DHT22;11328;53.928;18.522;2024-01-15T06:04:47;1.00;99.90
22321;DHT22;11328;53.928;18.522;2024-01-15T06:07:14;1.00;99.90
22321;DHT22;11328;53.928;18.522;2024-01-15T06:09:41;1.00;99.90
22321;DHT22;11328;53.928;18.522;2024-01-15T06:12:09;1.10;99.90
22321;DHT22;11328;53.928;18.522;2024-01-15T06:14:36;1.10;99.90
22321;DHT22;11328;53.928;18.522;2024-01-15T06:17:03;1.20;99.90
22321;DHT22;11328;53.928;18.522;2024-01-15T06:19:30;1.30;99.90
22321;DHT22;11328;53.928;18.522;2024-01-15T06:21:57;1.40;99.90
22321;DHT22;11328;53.928;18.522;2024-01-15T06:24:25;1.40;99.90
22321;DHT22;11328;53.928;18.522;2024-01-15T06:26:52;1.40;99.90
22321;DHT22;11328;53.928;18.522;2024-01-15T06:29:19;1.40;99.90
22321;DHT22;11328;53.928;18.522;2024-01-15T06:31:46;1.50;99.90
22321;DHT22;11328;53.928;18.522;2024-01-15T06:34:15;1.60;99.90
22321;DHT22;11328;53.928;18.522;2024-01-15T06:36:42;1.60;99.90
22321;DHT22;11328;53.928;18.522;2024-01-15T06:39:10;1.50;99.90
22321;DHT22;11328;53.928;18.522;2024-01-15T06:41:37;1.40;99.90
22321;DHT22;11328;53.928;18.522;2024-01-15T06:44:11;1.50;99.90
22321;DHT22;11328;53.928;18.522;2024-01-15T06:46:45;1.50;99.90
22321;DHT22;11328;53.928;18.522;2024-01-15T06:49:12;1.50;99.90
22321;DHT22;11328;53.928;18.522;2024-01-15T06:51:39;1.50;99.90
22321;DHT22;11328;53.928;18.522;2024-01-15T06:54:07;1.50;99.90
22321;DHT22;11328;53.928;18.522;2024-01-15T06:56:34;1.40;99.90
22321;DHT22;11328;53.928;18.522;2024-01-15T06:59:01;1.40;99.90
22321;DHT22;11328;53.928;18.522;2024-01-15T07:01:29;1.50;99.90
22321;DHT22;11328;53.928;18.522;2024-01-15T07:03:56;1.50;99.90
22321;DHT22;11328;53.928;18.522;2024-01-15T07:06:23;1.50;99.90
22321;DHT22;11328;53.928;18.522;2024-01-15T07:08:50;1.60;99.90
22321;DHT22;11328;53.928;18.522;2024-01-15T07:11:17;1.50;99.90
22321;DHT22;11328;53.928;18.522;2024-01-15T07:13:44;1.50;99.90
22321;DHT22;11328;53.928;18.522;2024-01-15T07:16:11;1.60;99.90
22321;DHT22;11328;53.928;18.522;2024-01-15T07:18:41;1.60;99.90
22321;DHT22;11328;53.928;18.522;2024-01-15T07:21:09;1.60;99.90
22321;DHT22;11328;53.928;18.522;2024-01-15T07:23:36;1.70;99.90
22321;DHT22;11328;53.928;18.522;2024-01-15T07:26:04;1.70;99.90
22321;DHT22;11328;53.928;18.522;2024-01-15T07:28:31;1.60;99.90
22321;DHT22;11328;53.928;18.522;2024-01-15T07:30:58;1.70;99.90
22321;DHT22;11328;53.928;18.522;2024-01-15T07:33:28;1.70;99.90
22321;DHT22;11328;53.928;18.522;2024-01-15T07:35:55;1.80;99.90
22321;DHT22;11328;53.928;18.522;2024-01-15T07:38:23;1.80;99.90
22321;DHT22;11328;53.928;18.522;2024-01-15T07:40:50;1.90;99.90
22321;DHT22;11328;53.928;18.522;2024-01-15T07:43:17;1.90;99.90
22321;DHT22;11328;53.928;18.522;2024-01-15T07:45:44;1.90;99.90
22321;DHT22;11328;53.928;18.522;2024-01-15T07:48:12;1.90;99.90
22321;DHT22;11328;53.928;18.522;2024-01-15T07:50:39;1.90;99.90
22321;DHT22;11328;53.928;18.522;2024-01-15T07:53:06;1.80;99.90
22321;DHT22;11328;53.928;18.522;2024-01-15T07:55:34;1.80;99.90
22321;DHT22;11328;53.928;18.522;2024-01-15T07:58:01;1.80;99.90
22321;DHT22;11328;53.928;18.522;2024-01-15T08:00:41;1.90;99.90
22321;DHT22;11328;53.928;18.522;2024-01-15T08:03:08;1.90;99.90
22321;DHT22;11328;53.928;18.522;2024-01-15T08:05:36;1.90;99.90
22321;DHT22;11328;53.928;18.522;2024-01-15T08:08:04;1.80;99.90
22321;DHT22;11328;53.928;18.522;2024-01-15T08:10:31;1.80;99.90
22321;DHT22;11328;53.928;18.522;2024-01-15T08:12:58;1.90;99.90
22321;DHT22;11328;53.928;18.522;2024-01-15T08:15:25;1.90;99.90
22321;DHT22;11328;53.928;18.522;2024-01-15T08:17:57;1.90;99.90
22321;DHT22;11328;53.928;18.522;2024-01-15T08:20:25;1.90;99.90
22321;DHT22;11328;53.928;18.522;2024-01-15T08:22:53;1.90;99.90
22321;DHT22;11328;53.928;18.522;2024-01-15T08:25:20;1.70;99.90
22321;DHT22;11328;53.928;18.522;2024-01-15T08:27:47;1.80;99.90
22321;DHT22;11328;53.928;18.522;2024-01-15T08:30:14;1.70;99.90
22321;DHT22;11328;53.928;18.522;2024-01-15T08:32:42;1.70;99.90
22321;DHT22;11328;53.928;18.522;2024-01-15T08:35:10;1.70;99.90
22321;DHT22;11328;53.928;18.522;2024-01-15T08:37:38;1.70;99.90
22321;DHT22;11328;53.928;18.522;2024-01-15T08:40:06;1.80;99.90
22321;DHT22;11328;53.928;18.522;2024-01-15T08:42:33;1.70;99.90
22321;DHT22;11328;53.928;18.522;2024-01-15T08:45:00;1.80;99.90
22321;DHT22;11328;53.928;18.522;2024-01-15T08:47:28;1.80;99.90
22321;DHT22;11328;53.928;18.522;2024-01-15T08:49:55;1.70;99.90
22321;DHT22;11328;53.928;18.522;2024-01-15T08:52:23;1.80;99.90
22321;DHT22;11328;53.928;18.522;2024-01-15T08:54:50;1.80;99.90
22321;DHT22;11328;53.928;18.522;2024-01-15T08:57:17;1.80;99.90
22321;DHT22;11328;53.928;18.522;2024-01-15T08:59:44;1.80;99.90
22321;DHT22;11328;53.928;18.522;2024-01-15T09:02:11;1.90;99.90
22321;DHT22;11328;53.928;18.522;2024-01-15T09:04:39;1.70;99.90
22321;DHT22;11328;53.928;18.522;2024-01-15T09:07:07;1.60;99.90
22321;DHT22;11328;53.928;18.522;2024-01-15T09:09:34;1.60;99.90
22321;DHT22;11328;53.928;18.522;2024-01-15T09:12:01;1.60;99.90
22321;DHT22;11328;53.928;18.522;2024-01-15T09:14:29;1.60;99.90
22321;DHT22;11328;53.928;18.522;2024-01-15T09:17:04;1.70;99.90
22321;DHT22;11328;53.928;18.522;2024-01-15T09:19:32;1.80;99.90
22321;DHT22;11328;53.928;18.522;2024-01-15T09:21:59;2.00;99.90
22321;DHT22;11328;53.928;18.522;2024-01-15T09:24:26;2.10;99.90
22321;DHT22;11328;53.928;18.522;2024-01-15T09:26:55;2.10;99.90
22321;DHT22;11328;53.928;18.522;2024-01-15T09:29:22;2.20;99.90
22321;DHT22;11328;53.928;18.522;2024-01-15T09:31:51;2.30;99.90
22321;DHT22;11328;53.928;18.522;2024-01-15T09:34:19;2.20;99.90
22321;DHT22;11328;53.928;18.522;2024-01-15T09:36:46;2.20;99.90
22321;DHT22;11328;53.928;18.522;2024-01-15T09:39:14;2.30;99.90
22321;DHT22;11328;53.928;18.522;2024-01-15T09:41:43;2.20;99.90
22321;DHT22;11328;53.928;18.522;2024-01-15T09:44:10;2.30;99.90
22321;DHT22;11328;53.928;18.522;2024-01-15T09:46:39;2.30;99.90
22321;DHT22;11328;53.928;18.522;2024-01-15T09:49:07;2.30;99.90
22321;DHT22;11328;53.928;18.522;2024-01-15T09:51:35;2.30;99.90
22321;DHT22;11328;53.928;18.522;2024-01-15T09:54:04;2.20;99.90
22321;DHT22;11328;53.928;18.522;2024-01-15T09:56:31;2.30;99.90
22321;DHT22;11328;53.928;18.522;2024-01-15T09:58:58;2.30;99.90
22321;DHT22;11328;53.928;18.522;2024-01-15T10:01:26;2.30;99.90
22321;DHT22;11328;53.928;18.522;2024-01-15T10:03:55;2.40;99.90
22321;DHT22;11328;53.928;18.522;2024-01-15T10:06:22;2.40;99.90
22321;DHT22;11328;53.928;18.522;2024-01-15T10:08:51;2.30;99.90
22321;DHT22;11328;53.928;18.522;2024-01-15T10:11:18;2.30;99.90
22321;DHT22;11328;53.928;18.522;2024-01-15T10:13:46;2.30;99.90
22321;DHT22;11328;53.928;18.522;2024-01-15T10:16:16;2.30;99.90
22321;DHT22;11328;53.928;18.522;2024-01-15T10:18:43;2.30;99.90
22321;DHT22;11328;53.928;18.522;2024-01-15T10:21:11;2.30;99.90
22321;DHT22;11328;53.928;18.522;2024-01-15T10:23:38;2.40;99.90
22321;DHT22;11328;53.928;18.522;2024-01-15T10:26:05;2.50;99.90
22321;DHT22;11328;53.928;18.522;2024-01-15T10:28:32;2.50;99.90
22321;DHT22;11328;53.928;18.522;2024-01-15T10:31:01;2.40;99.90
22321;DHT22;11328;53.928;18.522;2024-01-15T10:33:29;2.50;99.90
22321;DHT22;11328;53.928;18.522;2024-01-15T10:35:57;2.50;99.90
22321;DHT22;11328;53.928;18.522;2024-01-15T10:38:26;2.30;99.90
22321;DHT22;11328;53.928;18.522;2024-01-15T10:40:54;2.30;99.90
22321;DHT22;11328;53.928;18.522;2024-01-15T10:43:23;2.30;99.90
22321;DHT22;11328;53.928;18.522;2024-01-15T10:45:54;2.30;99.90
22321;DHT22;11328;53.928;18.522;2024-01-15T10:48:22;2.30;99.90
22321;DHT22;11328;53.928;18.522;2024-01-15T10:50:50;2.20;99.90
22321;DHT22;11328;53.928;18.522;2024-01-15T10:53:17;2.20;99.90
22321;DHT22;11328;53.928;18.522;2024-01-15T10:55:46;2.20;99.90
22321;DHT22;11328;53.928;18.522;2024-01-15T10:58:16;2.00;99.90
22321;DHT22;11328;53.928;18.522;2024-01-15T11:00:44;2.00;99.90
22321;DHT22;11328;53.928;18.522;2024-01-15T11:03:12;1.90;99.90
22321;DHT22;11328;53.928;18.522;2024-01-15T11:05:43;1.90;99.90
22321;DHT22;11328;53.928;18.522;2024-01-15T11:08:11;1.90;99.90
22321;DHT22;11328;53.928;18.522;2024-01-15T11:10:41;2.00;99.90
22321;DHT22;11328;53.928;18.522;2024-01-15T11:13:10;1.90;99.90
22321;DHT22;11328;53.928;18.522;2024-01-15T11:16:06;1.90;99.90
22321;DHT22;11328;53.928;18.522;2024-01-15T11:21:24;2.00;99.90
22321;DHT22;11328;53.928;18.522;2024-01-15T11:23:58;2.00;99.90
22321;DHT22;11328;53.928;18.522;2024-01-15T11:26:45;1.90;99.90
22321;DHT22;11328;53.928;18.522;2024-01-15T11:35:04;1.80;99.90
22321;DHT22;11328;53.928;18.522;2024-01-15T11:40:20;1.80;99.90
22321;DHT22;11328;53.928;18.522;2024-01-15T11:42:49;1.70;99.90
22321;DHT22;11328;53.928;18.522;2024-01-15T11:45:19;1.70;99.90
22321;DHT22;11328;53.928;18.522;2024-01-15T11:50:23;1.80;99.90
22321;DHT22;11328;53.928;18.522;2024-01-15T11:53:00;1.80;99.90
22321;DHT22;11328;53.928;18.522;2024-01-15T11:55:38;1.90;99.90
22321;DHT22;11328;53.928;18.522;2024-01-15T11:58:08;2.00;99.90
22321;DHT22;11328;53.928;18.522;2024-01-15T12:00:44;1.90;99.90
22321;DHT22;11328;53.928;18.522;2024-01-15T12:03:14;2.10;99.90
22321;DHT22;11328;53.928;18.522;2024-01-15T12:05:41;1.90;99.90
22321;DHT22;11328;53.928;18.522;2024-01-15T12:08:09;1.90;99.90
22321;DHT22;11328;53.928;18.522;2024-01-15T12:10:42;1.90;99.90
22321;DHT22;11328;53.928;18.522;2024-01-15T12:15:39;1.80;99.90
22321;DHT22;11328;53.928;18.522;2024-01-15T12:18:09;1.80;99.90
22321;DHT22;11328;53.928;18.522;2024-01-15T12:20:37;1.80;99.90
22321;DHT22;11328;53.928;18.522;2024-01-15T12:23:06;1.70;99.90
22321;DHT22;11328;53.928;18.522;2024-01-15T12:25:36;1.40;99.90
22321;DHT22;11328;53.928;18.522;2024-01-15T12:28:04;1.40;99.90
22321;DHT22;11328;53.928;18.522;2024-01-15T12:30:33;1.30;99.90
22321;DHT22;11328;53.928;18.522;2024-01-15T12:33:06;1.30;99.90
22321;DHT22;11328;53.928;18.522;2024-01-15T12:35:35;1.30;99.90
22321;DHT22;11328;53.928;18.522;2024-01-15T12:38:03;1.40;99.90
22321;DHT22;11328;53.928;18.522;2024-01-15T12:40:32;1.30;99.90
22321;DHT22;11328;53.928;18.522;2024-01-15T12:43:02;1.50;99.90
22321;DHT22;11328;53.928;18.522;2024-01-15T12:45:30;1.30;99.90
22321;DHT22;11328;53.928;18.522;2024-01-15T12:47:59;1.40;99.90
22321;DHT22;11328;53.928;18.522;2024-01-15T12:50:33;1.50;99.90
22321;DHT22;11328;53.928;18.522;2024-01-15T12:53:07;1.40;99.90
22321;DHT22;11328;53.928;18.522;2024-01-15T12:55:34;1.30;99.90
22321;DHT22;11328;53.928;18.522;2024-01-15T12:58:20;1.40;99.90
22321;DHT22;11328;53.928;18.522;2024-01-15T13:00:50;1.40;99.90
22321;DHT22;11328;53.928;18.522;2024-01-15T13:03:23;1.40;99.90
22321;DHT22;11328;53.928;18.522;2024-01-15T13:05:57;1.20;99.90
22321;DHT22;11328;53.928;18.522;2024-01-15T13:08:24;1.10;99.90
22321;DHT22;11328;53.928;18.522;2024-01-15T13:10:53;1.10;99.90
22321;DHT22;11328;53.928;18.522;2024-01-15T13:13:23;1.10;99.90
22321;DHT22;11328;53.928;18.522;2024-01-15T13:15:50;1.20;99.90
22321;DHT22;11328;53.928;18.522;2024-01-15T13:18:17;1.10;99.90
22321;DHT22;11328;53.928;18.522;2024-01-15T13:20:44;1.00;99.90
22321;DHT22;11328;53.928;18.522;2024-01-15T13:23:12;0.80;99.90
22321;DHT22;11328;53.928;18.522;2024-01-15T13:25:39;0.90;99.90
22321;DHT22;11328;53.928;18.522;2024-01-15T13:28:06;1.00;99.90
22321;DHT22;11328;53.928;18.522;2024-01-15T13:30:34;0.90;99.90
22321;DHT22;11328;53.928;18.522;2024-01-15T13:33:02;0.90;99.90
22321;DHT22;11328;53.928;18.522;2024-01-15T13:35:31;1.00;99.90
22321;DHT22;11328;53.928;18.522;2024-01-15T13:37:58;0.90;99.90
22321;DHT22;11328;53.928;18.522;2024-01-15T13:40:25;0.90;99.90
22321;DHT22;11328;53.928;18.522;2024-01-15T13:42:53;0.90;99.90
22321;DHT22;11328;53.928;18.522;2024-01-15T13:45:21;1.00;99.90
22321;DHT22;11328;53.928;18.522;2024-01-15T13:47:50;0.80;99.90
22321;DHT22;11328;53.928;18.522;2024-01-15T13:50:17;0.80;99.90
22321;DHT22;11328;53.928;18.522;2024-01-15T13:52:44;0.70;99.90
22321;DHT22;11328;53.928;18.522;2024-01-15T13:55:11;0.70;99.90
22321;DHT22;11328;53.928;18.522;2024-01-15T13:57:38;0.60;99.90
22321;DHT22;11328;53.928;18.522;2024-01-15T14:00:06;0.60;99.90
22321;DHT22;11328;53.928;18.522;2024-01-15T14:02:38;0.60;99.90
22321;DHT22;11328;53.928;18.522;2024-01-15T14:05:06;0.50;99.90
22321;DHT22;11328;53.928;18.522;2024-01-15T14:07:33;0.50;99.90
22321;DHT22;11328;53.928;18.522;2024-01-15T14:10:00;0.60;99.90
22321;DHT22;11328;53.928;18.522;2024-01-15T14:12:27;0.50;99.90
22321;DHT22;11328;53.928;18.522;2024-01-15T14:14:54;0.40;99.90
22321;DHT22;11328;53.928;18.522;2024-01-15T14:17:22;0.40;99.90
22321;DHT22;11328;53.928;18.522;2024-01-15T14:19:49;0.50;99.90
22321;DHT22;11328;53.928;18.522;2024-01-15T14:22:18;0.50;99.90
22321;DHT22;11328;53.928;18.522;2024-01-15T14:24:47;0.50;99.90
22321;DHT22;11328;53.928;18.522;2024-01-15T14:27:15;0.50;99.90
22321;DHT22;11328;53.928;18.522;2024-01-15T14:29:42;0.40;99.90
22321;DHT22;11328;53.928;18.522;2024-01-15T14:32:09;0.40;99.90
22321;DHT22;11328;53.928;18.522;2024-01-15T14:34:37;0.40;99.90
22321;DHT22;11328;53.928;18.522;2024-01-15T14:37:09;0.30;99.90
22321;DHT22;11328;53.928;18.522;2024-01-15T14:39:37;0.20;99.90
22321;DHT22;11328;53.928;18.522;2024-01-15T14:42:09;0.30;99.90
22321;DHT22;11328;53.928;18.522;2024-01-15T14:44:38;0.30;99.90
22321;DHT22;11328;53.928;18.522;2024-01-15T14:47:07;0.10;99.90
22321;DHT22;11328;53.928;18.522;2024-01-15T14:49:34;0.10;99.90
22321;DHT22;11328;53.928;18.522;2024-01-15T14:52:02;0.20;99.90
22321;DHT22;11328;53.928;18.522;2024-01-15T14:54:29;0.10;99.90
22321;DHT22;11328;53.928;18.522;2024-01-15T14:56:56;0.00;99.90
22321;DHT22;11328;53.928;18.522;2024-01-15T14:59:24;-0.10;99.90
22321;DHT22;11328;53.928;18.522;2024-01-15T15:01:51;0.00;99.90
22321;DHT22;11328;53.928;18.522;2024-01-15T15:04:18;-0.10;99.90
22321;DHT22;11328;53.928;18.522;2024-01-15T15:06:45;-0.10;99.90
22321;DHT22;11328;53.928;18.522;2024-01-15T15:09:13;-0.10;99.90
22321;DHT22;11328;53.928;18.522;2024-01-15T15:11:40;-0.10;99.90
22321;DHT22;11328;53.928;18.522;2024-01-15T15:14:07;-0.10;99.90
22321;DHT22;11328;53.928;18.522;2024-01-15T15:16:34;-0.10;99.90
22321;DHT22;11328;53.928;18.522;2024-01-15T15:19:02;-0.10;99.90
22321;DHT22;11328;53.928;18.522;2024-01-15T15:21:29;-0.10;99.90
22321;DHT22;11328;53.928;18.522;2024-01-15T15:23:56;-0.10;99.90
22321;DHT22;11328;53.928;18.522;2024-01-15T15:26:24;0.00;99.90
22321;DHT22;11328;53.928;18.522;2024-01-15T15:28:51;0.00;99.90
22321;DHT22;11328;53.928;18.522;2024-01-15T15:31:18;0.10;99.90
22321;DHT22;11328;53.928;18.522;2024-01-15T15:33:45;0.00;99.90
22321;DHT22;11328;53.928;18.522;2024-01-15T15:36:12;0.00;99.90
22321;DHT22;11328;53.928;18.522;2024-01-15T15:38:39;0.00;99.90
22321;DHT22;11328;53.928;18.522;2024-01-15T15:41:07;0.10;99.90
22321;DHT22;11328;53.928;18.522;2024-01-15T15:43:35;0.00;99.90
22321;DHT22;11328;53.928;18.522;2024-01-15T15:46:02;0.00;99.90
22321;DHT22;11328;53.928;18.522;2024-01-15T15:48:31;0.00;99.90
22321;DHT22;11328;53.928;18.522;2024-01-15T15:50:58;0.00;99.90
22321;DHT22;11328;53.928;18.522;2024-01-15T15:53:26;-0.10;99.90